Svalbard/Longyear

Airport
ICAO code: 
ENSB
Summary
ICAO Region: 
EUR
Territory: 
Location: 
Svalbard, Spitzbergen,
Elevation: 
88 ft
Coordinates: 
Aerial View: 
78° 14' 45.965" N, 15° 27' 56.16" E
Metar
Observation
ENSB 020520Z 11010KT 9999 FEW029 M10/M13 Q1011 RMK WIND 1400FT 21014KT
Station
Svalbard Lufthavn
Date/Time
2021-12-02 05:20:00
Wind direction
110°
Wind speed
10 kts
Lowest cloud amount
few clouds
Temperature
-10°C
Dew point
-13°C
Humidity
78%
QNH
1011 hPa
Weather condition
n/a

Description

Svalbard Airport, Longyear is the main airport serving Svalbard in Norway. It is located 1.6 nm northwest of Longyearbyen, and it is the northernmost airport in the world with public scheduled flights.

Climatology

Tundra climate (Köppen climate classification ET) - average temperature below 10°C in all twelve months of the year with very little precipitation

Runways

Designator Length Width Surface Rops
10/28 2319 45 ASP Yes/Yes
Airport map: 
Aerial View: 

Accidents and Serious Incidents at or in the vicinity of ENSB

SKYbrary Partners:

Safety knowledge contributed by: